sensor_id;sensor_type;location;lat;lon;timestamp;pressure;altitude;pressure_sealevel;temperature;humidity
1726;BME280;41776;48.260;8.928;2023-02-20T00:00:50;52515.69;;;-145.69;100.00
1726;BME280;41776;48.260;8.928;2023-02-20T00:03:17;52493.91;;;-145.69;100.00
1726;BME280;41776;48.260;8.928;2023-02-20T00:05:43;52472.13;;;-145.69;100.00
1726;BME280;41776;48.260;8.928;2023-02-20T00:08:13;52491.91;;;-145.69;100.00
1726;BME280;41776;48.260;8.928;2023-02-20T00:10:40;52531.53;;;-145.69;100.00
1726;BME280;41776;48.260;8.928;2023-02-20T00:13:06;52491.91;;;-145.69;100.00
1726;BME280;41776;48.260;8.928;2023-02-20T00:15:34;52515.69;;;-145.69;100.00
1726;BME280;41776;48.260;8.928;2023-02-20T00:18:02;52523.59;;;-145.69;100.00
1726;BME280;41776;48.260;8.928;2023-02-20T00:20:28;52495.88;;;-145.69;100.00
1726;BME280;41776;48.260;8.928;2023-02-20T00:22:57;52507.75;;;-145.69;100.00
1726;BME280;41776;48.260;8.928;2023-02-20T00:25:26;52495.88;;;-145.69;100.00
1726;BME280;41776;48.260;8.928;2023-02-20T00:27:53;52523.59;;;-145.69;100.00
1726;BME280;41776;48.260;8.928;2023-02-20T00:30:21;52503.81;;;-145.69;100.00
1726;BME280;41776;48.260;8.928;2023-02-20T00:32:50;52507.75;;;-145.69;100.00
1726;BME280;41776;48.260;8.928;2023-02-20T00:35:20;52495.88;;;-145.69;100.00
1726;BME280;41776;48.260;8.928;2023-02-20T00:37:59;52511.72;;;-145.69;100.00
1726;BME280;41776;48.260;8.928;2023-02-20T00:40:25;52515.69;;;-145.69;100.00
1726;BME280;41776;48.260;8.928;2023-02-20T00:42:54;52523.59;;;-145.69;100.00
1726;BME280;41776;48.260;8.928;2023-02-20T00:45:27;52509.75;;;-145.69;100.00
1726;BME280;41776;48.260;8.928;2023-02-20T00:47:55;52503.81;;;-145.69;100.00
1726;BME280;41776;48.260;8.928;2023-02-20T00:50:24;52501.81;;;-145.69;100.00
1726;BME280;41776;48.260;8.928;2023-02-20T00:52:51;52525.59;;;-145.69;100.00
1726;BME280;41776;48.260;8.928;2023-02-20T00:55:17;52511.72;;;-145.69;100.00
1726;BME280;41776;48.260;8.928;2023-02-20T00:57:44;52501.81;;;-145.69;100.00
1726;BME280;41776;48.260;8.928;2023-02-20T01:00:18;52521.63;;;-145.69;100.00
1726;BME280;41776;48.260;8.928;2023-02-20T01:02:48;52507.75;;;-145.69;100.00
1726;BME280;41776;48.260;8.928;2023-02-20T01:05:15;52507.75;;;-145.69;100.00
1726;BME280;41776;48.260;8.928;2023-02-20T01:07:43;52515.69;;;-145.69;100.00
1726;BME280;41776;48.260;8.928;2023-02-20T01:10:12;52503.81;;;-145.69;100.00
1726;BME280;41776;48.260;8.928;2023-02-20T01:12:39;52491.91;;;-145.69;100.00
1726;BME280;41776;48.260;8.928;2023-02-20T01:15:07;52470.13;;;-145.69;100.00
1726;BME280;41776;48.260;8.928;2023-02-20T01:17:34;52507.75;;;-145.69;100.00
1726;BME280;41776;48.260;8.928;2023-02-20T01:20:03;52499.84;;;-145.69;100.00
1726;BME280;41776;48.260;8.928;2023-02-20T01:22:30;52487.97;;;-145.69;100.00
1726;BME280;41776;48.260;8.928;2023-02-20T01:24:58;52511.72;;;-145.69;100.00
1726;BME280;41776;48.260;8.928;2023-02-20T01:27:24;52535.47;;;-145.69;100.00
1726;BME280;41776;48.260;8.928;2023-02-20T01:29:51;52491.91;;;-145.69;100.00
1726;BME280;41776;48.260;8.928;2023-02-20T01:32:17;52505.78;;;-145.69;100.00
1726;BME280;41776;48.260;8.928;2023-02-20T01:34:44;52515.69;;;-145.69;100.00
1726;BME280;41776;48.260;8.928;2023-02-20T01:37:12;52547.38;;;-145.69;100.00
1726;BME280;41776;48.260;8.928;2023-02-20T01:39:41;52539.44;;;-145.69;100.00
1726;BME280;41776;48.260;8.928;2023-02-20T01:42:12;52472.13;;;-145.69;100.00
1726;BME280;41776;48.260;8.928;2023-02-20T01:47:36;52509.75;;;-145.69;100.00
1726;BME280;41776;48.260;8.928;2023-02-20T01:50:04;52535.47;;;-145.69;100.00
1726;BME280;41776;48.260;8.928;2023-02-20T01:52:34;52527.56;;;-145.69;100.00
1726;BME280;41776;48.260;8.928;2023-02-20T01:55:08;52497.84;;;-145.69;100.00
1726;BME280;41776;48.260;8.928;2023-02-20T01:57:44;52531.53;;;-145.69;100.00
1726;BME280;41776;48.260;8.928;2023-02-20T02:00:15;52495.88;;;-145.69;100.00
1726;BME280;41776;48.260;8.928;2023-02-20T02:02:47;52503.81;;;-145.69;100.00
1726;BME280;41776;48.260;8.928;2023-02-20T02:05:19;52511.72;;;-145.69;100.00
1726;BME280;41776;48.260;8.928;2023-02-20T02:07:46;52523.59;;;-145.69;100.00
1726;BME280;41776;48.260;8.928;2023-02-20T02:10:15;52511.72;;;-145.69;100.00
1726;BME280;41776;48.260;8.928;2023-02-20T02:12:48;52523.59;;;-145.69;100.00
1726;BME280;41776;48.260;8.928;2023-02-20T02:15:18;52507.75;;;-145.69;100.00
1726;BME280;41776;48.260;8.928;2023-02-20T02:17:59;52531.53;;;-145.69;100.00
1726;BME280;41776;48.260;8.928;2023-02-20T02:20:55;52527.56;;;-145.69;100.00
1726;BME280;41776;48.260;8.928;2023-02-20T02:29:43;52533.50;;;-145.69;100.00
1726;BME280;41776;48.260;8.928;2023-02-20T02:32:50;52505.78;;;-145.69;100.00
1726;BME280;41776;48.260;8.928;2023-02-20T02:38:55;52495.88;;;-145.69;100.00
1726;BME280;41776;48.260;8.928;2023-02-20T02:41:33;52539.44;;;-145.69;100.00
1726;BME280;41776;48.260;8.928;2023-02-20T02:44:10;52555.28;;;-145.69;100.00
1726;BME280;41776;48.260;8.928;2023-02-20T02:46:40;52505.78;;;-145.69;100.00
1726;BME280;41776;48.260;8.928;2023-02-20T02:49:13;52527.56;;;-145.69;100.00
1726;BME280;41776;48.260;8.928;2023-02-20T02:51:46;52535.47;;;-145.69;100.00
1726;BME280;41776;48.260;8.928;2023-02-20T02:54:17;52523.59;;;-145.69;100.00
1726;BME280;41776;48.260;8.928;2023-02-20T02:56:46;52543.41;;;-145.69;100.00
1726;BME280;41776;48.260;8.928;2023-02-20T02:59:16;52581.03;;;-145.69;100.00
1726;BME280;41776;48.260;8.928;2023-02-20T03:01:48;52573.13;;;-145.69;100.00
1726;BME280;41776;48.260;8.928;2023-02-20T03:04:19;52527.56;;;-145.69;100.00
1726;BME280;41776;48.260;8.928;2023-02-20T03:06:51;52551.31;;;-145.69;100.00
1726;BME280;41776;48.260;8.928;2023-02-20T03:09:23;52559.25;;;-145.69;100.00
1726;BME280;41776;48.260;8.928;2023-02-20T03:11:55;52557.28;;;-145.69;100.00
1726;BME280;41776;48.260;8.928;2023-02-20T03:14:26;52529.53;;;-145.69;100.00
1726;BME280;41776;48.260;8.928;2023-02-20T03:17:17;52533.50;;;-145.69;100.00
1726;BME280;41776;48.260;8.928;2023-02-20T03:19:48;52507.75;;;-145.69;100.00
1726;BME280;41776;48.260;8.928;2023-02-20T03:22:18;52551.31;;;-145.69;100.00
1726;BME280;41776;48.260;8.928;2023-02-20T03:24:55;52545.38;;;-145.69;100.00
1726;BME280;41776;48.260;8.928;2023-02-20T03:27:42;52541.44;;;-145.69;100.00
1726;BME280;41776;48.260;8.928;2023-02-20T03:30:19;52557.28;;;-145.69;100.00
1726;BME280;41776;48.260;8.928;2023-02-20T03:32:50;52531.53;;;-145.69;100.00
1726;BME280;41776;48.260;8.928;2023-02-20T03:35:39;52531.53;;;-145.69;100.00
1726;BME280;41776;48.260;8.928;2023-02-20T03:38:27;52535.47;;;-145.69;100.00
1726;BME280;41776;48.260;8.928;2023-02-20T03:41:15;52537.47;;;-145.69;100.00
1726;BME280;41776;48.260;8.928;2023-02-20T03:44:03;52525.59;;;-145.69;100.00
1726;BME280;41776;48.260;8.928;2023-02-20T03:46:34;52571.13;;;-145.69;100.00
1726;BME280;41776;48.260;8.928;2023-02-20T03:49:04;52557.28;;;-145.69;100.00
1726;BME280;41776;48.260;8.928;2023-02-20T03:51:32;52585.00;;;-145.69;100.00
1726;BME280;41776;48.260;8.928;2023-02-20T03:53:59;52547.38;;;-145.69;100.00
1726;BME280;41776;48.260;8.928;2023-02-20T03:56:30;52557.28;;;-145.69;100.00
1726;BME280;41776;48.260;8.928;2023-02-20T03:59:02;52559.25;;;-145.69;100.00
1726;BME280;41776;48.260;8.928;2023-02-20T04:01:32;52547.38;;;-145.69;100.00
1726;BME280;41776;48.260;8.928;2023-02-20T04:04:01;52571.13;;;-145.69;100.00
1726;BME280;41776;48.260;8.928;2023-02-20T04:06:31;52533.50;;;-145.69;100.00
1726;BME280;41776;48.260;8.928;2023-02-20T04:09:01;52549.34;;;-145.69;100.00
1726;BME280;41776;48.260;8.928;2023-02-20T04:11:35;52525.59;;;-145.69;100.00
1726;BME280;41776;48.260;8.928;2023-02-20T04:14:05;52579.06;;;-145.69;100.00
1726;BME280;41776;48.260;8.928;2023-02-20T04:16:38;52551.31;;;-145.69;100.00
1726;BME280;41776;48.260;8.928;2023-02-20T04:19:09;52551.31;;;-145.69;100.00
1726;BME280;41776;48.260;8.928;2023-02-20T04:21:38;52531.53;;;-145.69;100.00
1726;BME280;41776;48.260;8.928;2023-02-20T04:24:09;52537.47;;;-145.69;100.00
1726;BME280;41776;48.260;8.928;2023-02-20T04:26:38;52575.09;;;-145.69;100.00
1726;BME280;41776;48.260;8.928;2023-02-20T04:29:05;52541.44;;;-145.69;100.00
1726;BME280;41776;48.260;8.928;2023-02-20T04:31:32;52559.25;;;-145.69;100.00
1726;BME280;41776;48.260;8.928;2023-02-20T04:33:59;52567.16;;;-145.69;100.00
1726;BME280;41776;48.260;8.928;2023-02-20T04:36:27;52583.00;;;-145.69;100.00
1726;BME280;41776;48.260;8.928;2023-02-20T04:38:57;52573.13;;;-145.69;100.00
1726;BME280;41776;48.260;8.928;2023-02-20T04:41:23;52563.22;;;-145.69;100.00
1726;BME280;41776;48.260;8.928;2023-02-20T04:43:51;52569.16;;;-145.69;100.00
1726;BME280;41776;48.260;8.928;2023-02-20T04:46:41;52586.97;;;-145.69;100.00
1726;BME280;41776;48.260;8.928;2023-02-20T04:49:10;52553.31;;;-145.69;100.00
1726;BME280;41776;48.260;8.928;2023-02-20T04:51:38;52557.28;;;-145.69;100.00
1726;BME280;41776;48.260;8.928;2023-02-20T04:54:05;52563.22;;;-145.69;100.00
1726;BME280;41776;48.260;8.928;2023-02-20T04:56:31;52579.06;;;-145.69;100.00
1726;BME280;41776;48.260;8.928;2023-02-20T04:59:02;52547.38;;;-145.69;100.00
1726;BME280;41776;48.260;8.928;2023-02-20T05:01:31;52561.22;;;-145.69;100.00
1726;BME280;41776;48.260;8.928;2023-02-20T05:03:58;52571.13;;;-145.69;100.00
1726;BME280;41776;48.260;8.928;2023-02-20T05:06:24;52575.09;;;-145.69;100.00
1726;BME280;41776;48.260;8.928;2023-02-20T05:08:51;52553.31;;;-145.69;100.00
1726;BME280;41776;48.260;8.928;2023-02-20T05:11:20;52598.84;;;-145.69;100.00
1726;BME280;41776;48.260;8.928;2023-02-20T05:13:46;52567.16;;;-145.69;100.00
1726;BME280;41776;48.260;8.928;2023-02-20T05:16:15;52557.28;;;-145.69;100.00
1726;BME280;41776;48.260;8.928;2023-02-20T05:18:41;52588.97;;;-145.69;100.00
1726;BME280;41776;48.260;8.928;2023-02-20T05:21:12;52577.06;;;-145.69;100.00
1726;BME280;41776;48.260;8.928;2023-02-20T05:23:56;52573.13;;;-145.69;100.00
1726;BME280;41776;48.260;8.928;2023-02-20T05:26:22;52596.88;;;-145.69;100.00
1726;BME280;41776;48.260;8.928;2023-02-20T05:28:49;52541.44;;;-145.69;100.00
1726;BME280;41776;48.260;8.928;2023-02-20T05:31:19;52567.16;;;-145.69;100.00
1726;BME280;41776;48.260;8.928;2023-02-20T05:33:47;52557.28;;;-145.69;100.00
1726;BME280;41776;48.260;8.928;2023-02-20T05:36:21;52626.59;;;-145.69;100.00
1726;BME280;41776;48.260;8.928;2023-02-20T05:38:47;52537.47;;;-145.69;100.00
1726;BME280;41776;48.260;8.928;2023-02-20T05:41:14;52551.31;;;-145.69;100.00
1726;BME280;41776;48.260;8.928;2023-02-20T05:43:41;52555.28;;;-145.69;100.00
1726;BME280;41776;48.260;8.928;2023-02-20T05:46:07;52563.22;;;-145.69;100.00
1726;BME280;41776;48.260;8.928;2023-02-20T05:48:35;52555.28;;;-145.69;100.00
1726;BME280;41776;48.260;8.928;2023-02-20T05:51:02;52563.22;;;-145.69;100.00
1726;BME280;41776;48.260;8.928;2023-02-20T05:53:30;52559.25;;;-145.69;100.00
1726;BME280;41776;48.260;8.928;2023-02-20T05:55:58;52551.31;;;-145.69;100.00
1726;BME280;41776;48.260;8.928;2023-02-20T05:58:24;52586.97;;;-145.69;100.00
1726;BME280;41776;48.260;8.928;2023-02-20T06:00:51;52565.19;;;-145.69;100.00
1726;BME280;41776;48.260;8.928;2023-02-20T06:03:17;52583.00;;;-145.69;100.00
1726;BME280;41776;48.260;8.928;2023-02-20T06:05:45;52600.84;;;-145.69;100.00
1726;BME280;41776;48.260;8.928;2023-02-20T06:08:12;52555.28;;;-145.69;100.00
1726;BME280;41776;48.260;8.928;2023-02-20T06:10:38;52573.13;;;-145.69;100.00
1726;BME280;41776;48.260;8.928;2023-02-20T06:13:05;52624.59;;;-145.69;100.00
1726;BME280;41776;48.260;8.928;2023-02-20T06:15:31;52581.03;;;-145.69;100.00
1726;BME280;41776;48.260;8.928;2023-02-20T06:17:58;52551.31;;;-145.69;100.00
1726;BME280;41776;48.260;8.928;2023-02-20T06:20:24;52579.06;;;-145.69;100.00
1726;BME280;41776;48.260;8.928;2023-02-20T06:22:52;52557.28;;;-145.69;100.00
1726;BME280;41776;48.260;8.928;2023-02-20T06:25:21;52596.88;;;-145.69;100.00
1726;BME280;41776;48.260;8.928;2023-02-20T06:27:48;52579.06;;;-145.69;100.00
1726;BME280;41776;48.260;8.928;2023-02-20T06:30:15;52614.72;;;-145.69;100.00
1726;BME280;41776;48.260;8.928;2023-02-20T06:32:41;52579.06;;;-145.69;100.00
1726;BME280;41776;48.260;8.928;2023-02-20T06:35:08;52567.16;;;-145.69;100.00
1726;BME280;41776;48.260;8.928;2023-02-20T06:37:34;52571.13;;;-145.69;100.00
1726;BME280;41776;48.260;8.928;2023-02-20T06:40:04;52600.84;;;-145.69;100.00
1726;BME280;41776;48.260;8.928;2023-02-20T06:42:31;52571.13;;;-145.69;100.00
1726;BME280;41776;48.260;8.928;2023-02-20T06:44:57;52551.31;;;-145.69;100.00
1726;BME280;41776;48.260;8.928;2023-02-20T06:47:24;52583.00;;;-145.69;100.00
1726;BME280;41776;48.260;8.928;2023-02-20T06:49:50;52561.22;;;-145.69;100.00
1726;BME280;41776;48.260;8.928;2023-02-20T06:52:17;52590.94;;;-145.69;100.00
1726;BME280;41776;48.260;8.928;2023-02-20T06:54:43;52588.97;;;-145.69;100.00
1726;BME280;41776;48.260;8.928;2023-02-20T06:57:14;52571.13;;;-145.69;100.00
1726;BME280;41776;48.260;8.928;2023-02-20T06:59:43;52563.22;;;-145.69;100.00
1726;BME280;41776;48.260;8.928;2023-02-20T07:02:15;52569.16;;;-145.69;100.00
1726;BME280;41776;48.260;8.928;2023-02-20T07:04:47;52573.13;;;-145.69;100.00
1726;BME280;41776;48.260;8.928;2023-02-20T07:07:16;52559.25;;;-145.69;100.00
1726;BME280;41776;48.260;8.928;2023-02-20T07:09:43;52571.13;;;-145.69;100.00
1726;BME280;41776;48.260;8.928;2023-02-20T07:12:12;52535.47;;;-145.69;100.00
1726;BME280;41776;48.260;8.928;2023-02-20T07:14:40;52598.84;;;-145.69;100.00
1726;BME280;41776;48.260;8.928;2023-02-20T07:17:09;52571.13;;;-145.69;100.00
1726;BME280;41776;48.260;8.928;2023-02-20T07:19:51;52539.44;;;-145.69;100.00
1726;BME280;41776;48.260;8.928;2023-02-20T07:22:18;52569.16;;;-145.69;100.00
1726;BME280;41776;48.260;8.928;2023-02-20T07:24:51;52561.22;;;-145.69;100.00
1726;BME280;41776;48.260;8.928;2023-02-20T07:27:21;52545.38;;;-145.69;100.00
1726;BME280;41776;48.260;8.928;2023-02-20T07:29:56;52545.38;;;-145.69;100.00
1726;BME280;41776;48.260;8.928;2023-02-20T07:32:26;52579.06;;;-145.69;100.00
1726;BME280;41776;48.260;8.928;2023-02-20T07:34:52;52592.91;;;-145.69;100.00
1726;BME280;41776;48.260;8.928;2023-02-20T07:37:19;52569.16;;;-145.69;100.00
1726;BME280;41776;48.260;8.928;2023-02-20T07:39:45;52543.41;;;-145.69;100.00
1726;BME280;41776;48.260;8.928;2023-02-20T07:42:11;52583.00;;;-145.69;100.00
1726;BME280;41776;48.260;8.928;2023-02-20T07:44:38;52531.53;;;-145.69;100.00
1726;BME280;41776;48.260;8.928;2023-02-20T07:47:06;52569.16;;;-145.69;100.00
1726;BME280;41776;48.260;8.928;2023-02-20T07:49:32;52543.41;;;-145.69;100.00
1726;BME280;41776;48.260;8.928;2023-02-20T07:51:58;52573.13;;;-145.69;100.00
1726;BME280;41776;48.260;8.928;2023-02-20T07:54:25;52575.09;;;-145.69;100.00
1726;BME280;41776;48.260;8.928;2023-02-20T07:56:53;52563.22;;;-145.69;100.00
1726;BME280;41776;48.260;8.928;2023-02-20T07:59:19;52553.31;;;-145.69;100.00
1726;BME280;41776;48.260;8.928;2023-02-20T08:01:46;52547.38;;;-145.69;100.00
1726;BME280;41776;48.260;8.928;2023-02-20T08:04:14;52549.34;;;-145.69;100.00
1726;BME280;41776;48.260;8.928;2023-02-20T08:06:40;52559.25;;;-145.69;100.00
1726;BME280;41776;48.260;8.928;2023-02-20T08:09:07;52559.25;;;-145.69;100.00
1726;BME280;41776;48.260;8.928;2023-02-20T08:11:34;52585.00;;;-145.69;100.00
1726;BME280;41776;48.260;8.928;2023-02-20T08:14:02;52559.25;;;-145.69;100.00
1726;BME280;41776;48.260;8.928;2023-02-20T08:16:29;52557.28;;;-145.69;100.00
1726;BME280;41776;48.260;8.928;2023-02-20T08:18:55;52565.19;;;-145.69;100.00
1726;BME280;41776;48.260;8.928;2023-02-20T08:21:23;52569.16;;;-145.69;100.00
1726;BME280;41776;48.260;8.928;2023-02-20T08:23:49;52521.63;;;-145.69;100.00
1726;BME280;41776;48.260;8.928;2023-02-20T08:26:16;52555.28;;;-145.69;100.00
1726;BME280;41776;48.260;8.928;2023-02-20T08:28:43;52539.44;;;-145.69;100.00
1726;BME280;41776;48.260;8.928;2023-02-20T08:31:11;52579.06;;;-145.69;100.00
1726;BME280;41776;48.260;8.928;2023-02-20T08:33:38;52551.31;;;-145.69;100.00
1726;BME280;41776;48.260;8.928;2023-02-20T08:36:05;52545.38;;;-145.69;100.00
1726;BME280;41776;48.260;8.928;2023-02-20T08:38:35;52539.44;;;-145.69;100.00
1726;BME280;41776;48.260;8.928;2023-02-20T08:41:02;52503.81;;;-145.69;100.00
1726;BME280;41776;48.260;8.928;2023-02-20T08:43:29;52543.41;;;-145.69;100.00
1726;BME280;41776;48.260;8.928;2023-02-20T08:45:56;52515.69;;;-145.69;100.00
1726;BME280;41776;48.260;8.928;2023-02-20T08:48:22;52541.44;;;-145.69;100.00
1726;BME280;41776;48.260;8.928;2023-02-20T08:50:55;52511.72;;;-145.69;100.00
1726;BME280;41776;48.260;8.928;2023-02-20T08:53:21;52499.84;;;-145.69;100.00
1726;BME280;41776;48.260;8.928;2023-02-20T08:55:52;52517.66;;;-145.69;100.00
1726;BME280;41776;48.260;8.928;2023-02-20T08:58:20;52547.38;;;-145.69;100.00
1726;BME280;41776;48.260;8.928;2023-02-20T09:00:49;52525.59;;;-145.69;100.00
1726;BME280;41776;48.260;8.928;2023-02-20T09:03:16;52545.38;;;-145.69;100.00
1726;BME280;41776;48.260;8.928;2023-02-20T09:05:51;52539.44;;;-145.69;100.00
1726;BME280;41776;48.260;8.928;2023-02-20T09:08:28;52523.59;;;-145.69;100.00
1726;BME280;41776;48.260;8.928;2023-02-20T09:11:03;52535.47;;;-145.69;100.00
1726;BME280;41776;48.260;8.928;2023-02-20T09:13:32;52547.38;;;-145.69;100.00
1726;BME280;41776;48.260;8.928;2023-02-20T09:15:58;52515.69;;;-145.69;100.00
1726;BME280;41776;48.260;8.928;2023-02-20T09:18:25;52468.16;;;-145.69;100.00
1726;BME280;41776;48.260;8.928;2023-02-20T09:20:52;52507.75;;;-145.69;95.38
1726;BME280;41776;48.260;8.928;2023-02-20T09:23:19;52480.03;;;-145.69;92.13
1726;BME280;41776;48.260;8.928;2023-02-20T09:25:48;52448.34;;;-145.69;94.79
1726;BME280;41776;48.260;8.928;2023-02-20T09:28:19;52472.13;;;-145.69;98.38
1726;BME280;41776;48.260;8.928;2023-02-20T09:30:53;52491.91;;;-145.69;92.03
1726;BME280;41776;48.260;8.928;2023-02-20T09:33:21;52503.81;;;-145.69;86.89
1726;BME280;41776;48.260;8.928;2023-02-20T09:35:49;52499.84;;;-145.69;83.31
1726;BME280;41776;48.260;8.928;2023-02-20T09:38:16;52460.22;;;-145.69;90.71
1726;BME280;41776;48.260;8.928;2023-02-20T09:40:43;52501.81;;;-145.69;78.40
1726;BME280;41776;48.260;8.928;2023-02-20T09:43:21;52464.19;;;-145.69;76.31
1726;BME280;41776;48.260;8.928;2023-02-20T09:45:57;52432.50;;;-145.69;79.95
1726;BME280;41776;48.260;8.928;2023-02-20T09:48:42;52484.00;;;-145.69;85.24
1726;BME280;41776;48.260;8.928;2023-02-20T09:51:14;52460.22;;;-145.69;79.15
1726;BME280;41776;48.260;8.928;2023-02-20T09:53:51;52491.91;;;-145.69;73.98
1726;BME280;41776;48.260;8.928;2023-02-20T09:56:21;52460.22;;;-145.69;71.66
1726;BME280;41776;48.260;8.928;2023-02-20T09:58:53;52515.69;;;-145.69;73.16
1726;BME280;41776;48.260;8.928;2023-02-20T10:01:25;52499.84;;;-145.69;74.41
1726;BME280;41776;48.260;8.928;2023-02-20T10:03:54;52478.06;;;-145.69;75.77
1726;BME280;41776;48.260;8.928;2023-02-20T10:06:24;52432.50;;;-145.69;76.58
1726;BME280;41776;48.260;8.928;2023-02-20T10:08:51;52487.97;;;-145.69;74.44
1726;BME280;41776;48.260;8.928;2023-02-20T10:11:25;52464.19;;;-145.69;77.05
1726;BME280;41776;48.260;8.928;2023-02-20T10:14:03;52444.38;;;-145.69;79.24
1726;BME280;41776;48.260;8.928;2023-02-20T10:16:37;52478.06;;;-145.69;76.44
1726;BME280;41776;48.260;8.928;2023-02-20T10:19:16;52468.16;;;-145.69;73.66
1726;BME280;41776;48.260;8.928;2023-02-20T10:21:54;52470.13;;;-145.69;69.51
1726;BME280;41776;48.260;8.928;2023-02-20T10:24:38;52448.34;;;-145.69;74.17
1726;BME280;41776;48.260;8.928;2023-02-20T10:27:18;52462.22;;;-145.69;66.61
1726;BME280;41776;48.260;8.928;2023-02-20T10:29:50;52454.28;;;-145.69;63.87
1726;BME280;41776;48.260;8.928;2023-02-20T10:32:20;52452.31;;;-145.69;66.87
1726;BME280;41776;48.260;8.928;2023-02-20T10:34:54;52440.44;;;-145.69;61.19
1726;BME280;41776;48.260;8.928;2023-02-20T10:37:25;52424.59;;;-145.69;59.58
1726;BME280;41776;48.260;8.928;2023-02-20T10:39:57;52446.38;;;-145.69;57.70
1726;BME280;41776;48.260;8.928;2023-02-20T10:42:31;52456.28;;;-145.69;56.28
1726;BME280;41776;48.260;8.928;2023-02-20T10:45:03;52448.34;;;-145.69;57.66
1726;BME280;41776;48.260;8.928;2023-02-20T10:47:35;52426.56;;;-145.69;54.95
1726;BME280;41776;48.260;8.928;2023-02-20T10:50:21;52468.16;;;-145.69;51.55
1726;BME280;41776;48.260;8.928;2023-02-20T10:52:51;52418.63;;;-145.69;50.14
1726;BME280;41776;48.260;8.928;2023-02-20T10:55:24;52412.69;;;-145.69;49.90
1726;BME280;41776;48.260;8.928;2023-02-20T10:57:56;52440.44;;;-145.69;50.61
1726;BME280;41776;48.260;8.928;2023-02-20T11:00:30;52416.66;;;-145.69;50.81
1726;BME280;41776;48.260;8.928;2023-02-20T11:03:04;52426.56;;;-145.69;53.86
1726;BME280;41776;48.260;8.928;2023-02-20T11:05:36;52414.69;;;-145.69;53.95
1726;BME280;41776;48.260;8.928;2023-02-20T11:08:06;52495.88;;;-145.69;54.87
1726;BME280;41776;48.260;8.928;2023-02-20T11:10:33;52422.59;;;-145.69;53.00
1726;BME280;41776;48.260;8.928;2023-02-20T11:13:03;52420.63;;;-145.69;54.68
1726;BME280;41776;48.260;8.928;2023-02-20T11:15:33;52428.53;;;-145.69;53.19
1726;BME280;41776;48.260;8.928;2023-02-20T11:18:06;52398.84;;;-145.69;52.34
1726;BME280;41776;48.260;8.928;2023-02-20T11:20:42;52440.44;;;-145.69;55.49
1726;BME280;41776;48.260;8.928;2023-02-20T11:23:33;52432.50;;;-145.69;51.87
1726;BME280;41776;48.260;8.928;2023-02-20T11:26:13;52432.50;;;-145.69;52.26
1726;BME280;41776;48.260;8.928;2023-02-20T11:28:40;52414.69;;;-145.69;53.36
1726;BME280;41776;48.260;8.928;2023-02-20T11:31:09;52404.78;;;-145.69;52.68
1726;BME280;41776;48.260;8.928;2023-02-20T11:33:42;52412.69;;;-145.69;53.32
1726;BME280;41776;48.260;8.928;2023-02-20T11:36:14;52365.16;;;-145.69;54.96
1726;BME280;41776;48.260;8.928;2023-02-20T11:38:42;52392.91;;;-145.69;51.58
1726;BME280;41776;48.260;8.928;2023-02-20T11:41:22;52416.66;;;-145.69;53.65
1726;BME280;41776;48.260;8.928;2023-02-20T11:44:15;52402.78;;;-145.69;52.47
1726;BME280;41776;48.260;8.928;2023-02-20T11:46:46;52388.94;;;-145.69;52.35
1726;BME280;41776;48.260;8.928;2023-02-20T11:49:24;52424.59;;;-145.69;54.30
1726;BME280;41776;48.260;8.928;2023-02-20T11:51:52;52373.09;;;-145.69;52.00
1726;BME280;41776;48.260;8.928;2023-02-20T11:54:32;52406.75;;;-145.69;50.64
1726;BME280;41776;48.260;8.928;2023-02-20T11:57:00;52396.84;;;-145.69;50.34
1726;BME280;41776;48.260;8.928;2023-02-20T11:59:36;52400.81;;;-145.69;50.01
1726;BME280;41776;48.260;8.928;2023-02-20T12:02:22;52396.84;;;-145.69;53.29
1726;BME280;41776;48.260;8.928;2023-02-20T12:05:19;52377.06;;;-145.69;47.48
1726;BME280;41776;48.260;8.928;2023-02-20T12:07:55;52400.81;;;-145.69;45.82
1726;BME280;41776;48.260;8.928;2023-02-20T12:10:38;52396.84;;;-145.69;49.01
1726;BME280;41776;48.260;8.928;2023-02-20T12:13:11;52361.22;;;-145.69;47.75
1726;BME280;41776;48.260;8.928;2023-02-20T12:15:37;52400.81;;;-145.69;48.24
1726;BME280;41776;48.260;8.928;2023-02-20T12:18:17;52394.88;;;-145.69;47.94
1726;BME280;41776;48.260;8.928;2023-02-20T12:20:51;52373.09;;;-145.69;50.49
1726;BME280;41776;48.260;8.928;2023-02-20T12:23:26;52383.00;;;-145.69;46.61
1726;BME280;41776;48.260;8.928;2023-02-20T12:26:09;52377.06;;;-145.69;46.26
1726;BME280;41776;48.260;8.928;2023-02-20T12:28:43;52361.22;;;-145.69;48.46
1726;BME280;41776;48.260;8.928;2023-02-20T12:31:20;52438.44;;;-145.69;47.78
1726;BME280;41776;48.260;8.928;2023-02-20T12:34:02;52357.25;;;-145.69;47.12
1726;BME280;41776;48.260;8.928;2023-02-20T12:36:35;52361.22;;;-145.69;46.33
1726;BME280;41776;48.260;8.928;2023-02-20T12:39:16;52367.16;;;-145.69;46.41
1726;BME280;41776;48.260;8.928;2023-02-20T12:41:53;52355.28;;;-145.69;47.73
1726;BME280;41776;48.260;8.928;2023-02-20T12:44:42;52369.13;;;-145.69;44.10
1726;BME280;41776;48.260;8.928;2023-02-20T12:47:26;52386.97;;;-145.69;45.72
1726;BME280;41776;48.260;8.928;2023-02-20T12:50:18;52392.91;;;-145.69;46.07
1726;BME280;41776;48.260;8.928;2023-02-20T12:53:19;52373.09;;;-145.69;45.75
1726;BME280;41776;48.260;8.928;2023-02-20T12:55:56;52392.91;;;-145.69;45.29
1726;BME280;41776;48.260;8.928;2023-02-20T12:58:30;52390.91;;;-145.69;46.01
1726;BME280;41776;48.260;8.928;2023-02-20T13:01:00;52357.25;;;-145.69;45.16
1726;BME280;41776;48.260;8.928;2023-02-20T13:03:37;52384.97;;;-145.69;46.56
1726;BME280;41776;48.260;8.928;2023-02-20T13:06:07;52351.31;;;-145.69;42.74
1726;BME280;41776;48.260;8.928;2023-02-20T13:08:39;52361.22;;;-145.69;44.25
1726;BME280;41776;48.260;8.928;2023-02-20T13:11:13;52373.09;;;-145.69;47.40
1726;BME280;41776;48.260;8.928;2023-02-20T13:13:48;52369.13;;;-145.69;44.55
1726;BME280;41776;48.260;8.928;2023-02-20T13:16:24;52345.38;;;-145.69;47.81